createdAt,value
2022-10-09T00:00:05.727Z,89.42
2022-10-09T00:01:02.637Z,89.52
2022-10-09T00:02:02.649Z,89.62
2022-10-09T00:03:02.605Z,89.62
2022-10-09T00:04:02.644Z,89.73
2022-10-09T00:05:02.644Z,89.83
2022-10-09T00:06:02.612Z,89.83
2022-10-09T00:07:02.582Z,90.04
2022-10-09T00:08:02.534Z,90.25
2022-10-09T00:09:02.535Z,90.25
2022-10-09T00:10:02.528Z,90.25
2022-10-09T00:11:02.555Z,90.28
2022-10-09T00:12:02.486Z,90.28
2022-10-09T00:13:02.479Z,90.39
2022-10-09T00:14:02.488Z,90.49
2022-10-09T00:15:02.463Z,90.49
2022-10-09T00:16:02.426Z,90.59
2022-10-09T00:17:02.496Z,90.49
2022-10-09T00:18:02.413Z,90.59
2022-10-09T00:19:05.392Z,90.59
2022-10-09T00:20:05.392Z,90.39
2022-10-09T00:21:02.379Z,90.33
2022-10-09T00:22:02.355Z,90.33
2022-10-09T00:23:02.388Z,90.22
2022-10-09T00:24:02.320Z,90.12
2022-10-09T00:25:02.367Z,90.22
2022-10-09T00:26:02.297Z,90.12
2022-10-09T00:27:02.298Z,90.22
2022-10-09T00:28:02.293Z,90.33
2022-10-09T00:29:02.260Z,90.43
2022-10-09T00:30:02.240Z,90.43
2022-10-09T00:31:02.330Z,90.53
2022-10-09T00:32:02.246Z,90.53
2022-10-09T00:33:02.201Z,90.64
2022-10-09T00:34:02.208Z,90.74
2022-10-09T00:35:02.192Z,90.95
2022-10-09T00:36:02.151Z,91.05
2022-10-09T00:37:02.168Z,91.05
2022-10-09T00:38:02.134Z,91.05
2022-10-09T00:39:05.117Z,91.05
2022-10-09T00:40:05.139Z,91.09
2022-10-09T00:41:02.084Z,90.99
2022-10-09T00:42:02.103Z,90.89
2022-10-09T00:43:02.062Z,90.68
2022-10-09T00:44:02.055Z,90.68
2022-10-09T00:45:02.034Z,90.47
2022-10-09T00:46:02.066Z,90.58
2022-10-09T00:47:02.045Z,90.68
2022-10-09T00:48:01.985Z,90.89
2022-10-09T00:49:01.990Z,90.99
2022-10-09T00:50:01.969Z,91.09
2022-10-09T00:51:01.973Z,91.20
2022-10-09T00:52:01.962Z,91.20
2022-10-09T00:53:01.978Z,91.30
2022-10-09T00:54:01.930Z,91.44
2022-10-09T00:55:01.893Z,91.44
2022-10-09T00:56:01.886Z,91.44
2022-10-09T00:57:01.894Z,91.65
2022-10-09T00:58:01.857Z,91.86
2022-10-09T00:59:04.919Z,91.75
2022-10-09T01:00:04.846Z,91.75
2022-10-09T01:01:01.904Z,91.75
2022-10-09T01:02:01.972Z,91.75
2022-10-09T01:03:01.788Z,91.75
2022-10-09T01:04:01.769Z,91.75
2022-10-09T01:05:01.803Z,91.75
2022-10-09T01:06:01.740Z,91.65
2022-10-09T01:07:01.743Z,91.59
2022-10-09T01:08:01.750Z,91.44
2022-10-09T01:09:01.733Z,91.49
2022-10-09T01:10:01.690Z,91.38
2022-10-09T01:11:01.691Z,91.28
2022-10-09T01:12:01.671Z,91.38
2022-10-09T01:13:01.672Z,91.38
2022-10-09T01:14:01.699Z,91.28
2022-10-09T01:15:01.634Z,91.38
2022-10-09T01:16:01.632Z,91.49
2022-10-09T01:17:01.602Z,91.59
2022-10-09T01:18:01.581Z,91.59
2022-10-09T01:19:04.593Z,91.59
2022-10-09T01:20:04.603Z,91.59
2022-10-09T01:21:01.543Z,91.38
2022-10-09T01:22:01.533Z,91.38
2022-10-09T01:23:01.516Z,91.28
2022-10-09T01:24:01.510Z,91.28
2022-10-09T01:25:01.498Z,91.07
2022-10-09T01:26:01.513Z,90.77
2022-10-09T01:27:01.456Z,90.66
2022-10-09T01:28:01.609Z,90.77
2022-10-09T01:29:01.449Z,90.66
2022-10-09T01:30:01.426Z,90.45
2022-10-09T01:31:01.587Z,90.25
2022-10-09T01:32:01.395Z,90.25
2022-10-09T01:33:01.376Z,90.25
2022-10-09T01:34:01.376Z,90.14
2022-10-09T01:35:01.355Z,90.25
2022-10-09T01:36:01.345Z,90.25
2022-10-09T01:37:01.346Z,90.25
2022-10-09T01:38:01.356Z,90.14
2022-10-09T01:39:04.310Z,90.14
2022-10-09T01:40:04.338Z,90.14
2022-10-09T01:41:01.278Z,90.25
2022-10-09T01:42:01.269Z,90.29
2022-10-09T01:43:01.286Z,90.29
2022-10-09T01:44:01.243Z,90.39
2022-10-09T01:45:01.208Z,90.29
2022-10-09T01:46:01.224Z,90.29
2022-10-09T01:47:01.199Z,90.19
2022-10-09T01:48:01.209Z,90.08
2022-10-09T01:49:01.177Z,89.98
2022-10-09T01:50:01.158Z,89.98
2022-10-09T01:51:01.146Z,89.98
2022-10-09T01:52:01.129Z,89.98
2022-10-09T01:53:01.144Z,90.08
2022-10-09T01:54:01.108Z,90.08
2022-10-09T01:55:01.092Z,90.19
2022-10-09T01:56:01.101Z,90.19
2022-10-09T01:57:01.067Z,90.29
2022-10-09T01:58:01.061Z,90.29
2022-10-09T01:59:04.043Z,90.29
2022-10-09T02:00:04.092Z,90.19
2022-10-09T02:01:01.001Z,90.19
2022-10-09T02:02:01.184Z,90.08
2022-10-09T02:03:01.034Z,90.08
2022-10-09T02:04:00.973Z,90.08
2022-10-09T02:05:00.942Z,90.08
2022-10-09T02:06:00.953Z,90.19
2022-10-09T02:07:00.932Z,90.23
2022-10-09T02:08:00.896Z,90.33
2022-10-09T02:09:00.901Z,90.44
2022-10-09T02:10:00.873Z,90.53
2022-10-09T02:11:00.894Z,90.64
2022-10-09T02:12:00.864Z,90.74
2022-10-09T02:13:00.846Z,90.84
2022-10-09T02:14:00.816Z,91.16
2022-10-09T02:15:00.806Z,91.36
2022-10-09T02:16:00.869Z,91.36
2022-10-09T02:17:00.787Z,91.57
2022-10-09T02:18:00.774Z,91.67
2022-10-09T02:19:03.986Z,91.72
2022-10-09T02:20:03.772Z,91.82
2022-10-09T02:21:00.736Z,91.72
2022-10-09T02:22:00.710Z,91.82
2022-10-09T02:23:00.705Z,91.82
2022-10-09T02:24:00.677Z,91.82
2022-10-09T02:25:00.697Z,91.82
2022-10-09T02:26:00.657Z,91.82
2022-10-09T02:27:00.657Z,91.72
2022-10-09T02:28:00.628Z,91.72
2022-10-09T02:29:00.639Z,91.72
2022-10-09T02:30:00.621Z,91.72
2022-10-09T02:31:00.676Z,91.82
2022-10-09T02:32:00.569Z,91.82
2022-10-09T02:33:00.576Z,92.03
2022-10-09T02:34:00.616Z,92.13
2022-10-09T02:35:00.559Z,92.18
2022-10-09T02:36:00.521Z,92.13
2022-10-09T02:37:00.521Z,92.18
2022-10-09T02:38:00.525Z,92.18
2022-10-09T02:39:03.509Z,92.07
2022-10-09T02:40:07.058Z,92.07
2022-10-09T02:41:01.463Z,91.86
2022-10-09T02:42:00.452Z,91.76
2022-10-09T02:43:00.420Z,91.66
2022-10-09T02:44:00.433Z,91.55
2022-10-09T02:45:00.391Z,91.45
2022-10-09T02:46:00.438Z,91.45
2022-10-09T02:47:00.385Z,91.35
2022-10-09T02:48:00.363Z,91.24
2022-10-09T02:49:00.396Z,91.14
2022-10-09T02:50:00.332Z,91.03
2022-10-09T02:51:00.314Z,90.93
2022-10-09T02:52:00.312Z,90.83
2022-10-09T02:53:00.286Z,90.72
2022-10-09T02:54:00.283Z,90.62
2022-10-09T02:55:00.313Z,90.47
2022-10-09T02:56:00.259Z,90.47
2022-10-09T02:57:00.302Z,90.47
2022-10-09T02:58:00.227Z,90.47
2022-10-09T02:59:03.205Z,90.47
2022-10-09T03:00:03.225Z,90.47
2022-10-09T03:01:00.184Z,90.37
2022-10-09T03:02:00.252Z,90.16
2022-10-09T03:03:00.243Z,90.06
2022-10-09T03:04:00.147Z,89.86
2022-10-09T03:05:00.106Z,89.86
2022-10-09T03:06:00.109Z,89.86
2022-10-09T03:07:00.089Z,89.75
2022-10-09T03:08:00.081Z,89.23
2022-10-09T03:09:00.096Z,89.03
2022-10-09T03:10:00.053Z,89.13
2022-10-09T03:11:00.075Z,89.03
2022-10-09T03:12:00.024Z,88.92
2022-10-09T03:13:00.041Z,88.92
2022-10-09T03:14:00.049Z,88.82
2022-10-09T03:15:00.008Z,88.71
2022-10-09T03:16:00.005Z,88.61
2022-10-09T03:16:59.959Z,88.30
2022-10-09T03:17:59.939Z,88.09
2022-10-09T03:19:02.978Z,87.99
2022-10-09T03:20:02.929Z,87.88
2022-10-09T03:20:59.900Z,87.78
2022-10-09T03:21:59.890Z,87.47
2022-10-09T03:22:59.890Z,87.37
2022-10-09T03:23:59.850Z,87.27
2022-10-09T03:24:59.915Z,86.75
2022-10-09T03:25:59.826Z,86.75
2022-10-09T03:26:59.811Z,86.75
2022-10-09T03:27:59.801Z,86.65
2022-10-09T03:28:59.781Z,86.65
2022-10-09T03:29:59.781Z,86.65
2022-10-09T03:30:59.880Z,86.65
2022-10-09T03:31:59.790Z,86.54
2022-10-09T03:32:59.742Z,86.54
2022-10-09T03:33:59.715Z,86.44
2022-10-09T03:34:59.704Z,86.44
2022-10-09T03:35:59.725Z,86.44
2022-10-09T03:36:59.692Z,86.44
2022-10-09T03:37:59.667Z,86.33
2022-10-09T03:39:02.663Z,86.33
2022-10-09T03:40:02.644Z,86.23
2022-10-09T03:40:59.632Z,86.23
2022-10-09T03:41:59.636Z,86.23
2022-10-09T03:42:59.604Z,86.23
2022-10-09T03:43:59.605Z,86.23
2022-10-09T03:44:59.566Z,86.23
2022-10-09T03:46:01.215Z,86.33
2022-10-09T03:46:59.586Z,86.23
2022-10-09T03:47:59.518Z,86.23
2022-10-09T03:48:59.543Z,86.33
2022-10-09T03:49:59.496Z,86.33
2022-10-09T03:50:59.517Z,86.33
2022-10-09T03:51:59.536Z,86.23
2022-10-09T03:52:59.457Z,86.23
2022-10-09T03:53:59.446Z,86.33
2022-10-09T03:54:59.428Z,86.33
2022-10-09T03:55:59.420Z,86.33
2022-10-09T03:56:59.408Z,86.33
2022-10-09T03:57:59.406Z,86.33
2022-10-09T03:59:02.373Z,86.44
2022-10-09T04:00:02.427Z,86.54
2022-10-09T04:00:59.392Z,86.65
2022-10-09T04:01:59.322Z,86.65
2022-10-09T04:02:59.384Z,86.75
2022-10-09T04:03:59.289Z,86.75
2022-10-09T04:04:59.280Z,86.85
2022-10-09T04:05:59.319Z,86.85
2022-10-09T04:06:59.252Z,86.85
2022-10-09T04:07:59.230Z,86.85
2022-10-09T04:08:59.224Z,86.85
2022-10-09T04:09:59.212Z,86.89
2022-10-09T04:10:59.193Z,86.89
2022-10-09T04:11:59.253Z,86.99
2022-10-09T04:12:59.170Z,86.89
2022-10-09T04:13:59.161Z,86.99
2022-10-09T04:14:59.132Z,86.99
2022-10-09T04:15:59.144Z,87.10
2022-10-09T04:16:59.125Z,86.99
2022-10-09T04:17:59.164Z,86.99
2022-10-09T04:19:02.451Z,86.99
2022-10-09T04:20:02.094Z,86.99
2022-10-09T04:20:59.065Z,87.10
2022-10-09T04:21:59.046Z,86.99
2022-10-09T04:22:59.026Z,86.99
2022-10-09T04:23:59.068Z,87.10
2022-10-09T04:24:59.006Z,87.10
2022-10-09T04:25:58.994Z,86.99
2022-10-09T04:26:58.976Z,86.99
2022-10-09T04:27:58.970Z,86.99
2022-10-09T04:28:58.946Z,86.89
2022-10-09T04:29:58.986Z,86.89
2022-10-09T04:30:58.927Z,86.99
2022-10-09T04:31:59.035Z,87.10
2022-10-09T04:32:58.896Z,87.20
2022-10-09T04:33:58.886Z,87.20
2022-10-09T04:34:58.865Z,87.20
2022-10-09T04:35:58.879Z,87.20
2022-10-09T04:36:58.838Z,87.20
2022-10-09T04:37:58.842Z,87.20
2022-10-09T04:39:01.808Z,86.89
2022-10-09T04:40:01.811Z,86.89
2022-10-09T04:40:58.779Z,86.89
2022-10-09T04:41:58.789Z,86.89
2022-10-09T04:42:58.800Z,86.79
2022-10-09T04:43:58.761Z,86.79
2022-10-09T04:44:58.722Z,86.68
2022-10-09T04:45:58.753Z,86.79
2022-10-09T04:46:58.691Z,86.79
2022-10-09T04:47:58.681Z,86.79
2022-10-09T04:48:58.690Z,86.79
2022-10-09T04:49:58.701Z,86.68
2022-10-09T04:50:58.630Z,86.68
2022-10-09T04:51:58.623Z,86.68
2022-10-09T04:52:58.660Z,86.79
2022-10-09T04:54:00.779Z,86.68
2022-10-09T04:54:58.591Z,86.58
2022-10-09T04:55:58.631Z,86.58
2022-10-09T04:56:58.559Z,86.47
2022-10-09T04:57:58.542Z,86.58
2022-10-09T04:59:01.529Z,86.58
2022-10-09T05:00:01.543Z,86.58
2022-10-09T05:00:58.545Z,86.47
2022-10-09T05:01:58.583Z,86.37
2022-10-09T05:02:58.471Z,86.47
2022-10-09T05:03:58.461Z,86.37
2022-10-09T05:04:58.434Z,86.37
2022-10-09T05:05:58.423Z,86.27
2022-10-09T05:06:58.434Z,86.27
2022-10-09T05:07:58.405Z,86.27
2022-10-09T05:08:58.376Z,86.27
2022-10-09T05:09:58.372Z,86.27
2022-10-09T05:10:58.353Z,86.27
2022-10-09T05:11:58.341Z,86.27
2022-10-09T05:12:58.359Z,86.37
2022-10-09T05:13:58.316Z,86.27
2022-10-09T05:14:58.396Z,86.37
2022-10-09T05:15:58.333Z,86.37
2022-10-09T05:17:14.819Z,86.47
2022-10-09T05:17:59.287Z,86.41
2022-10-09T05:19:01.238Z,86.41
2022-10-09T05:20:01.274Z,86.27
2022-10-09T05:20:58.217Z,86.17
2022-10-09T05:21:58.197Z,86.17
2022-10-09T05:22:58.192Z,86.17
2022-10-09T05:23:58.167Z,86.07
2022-10-09T05:24:58.148Z,85.96
2022-10-09T05:25:58.178Z,85.96
2022-10-09T05:26:58.128Z,86.07
2022-10-09T05:27:58.171Z,85.96
2022-10-09T05:28:58.091Z,85.96
2022-10-09T05:29:58.098Z,85.86
2022-10-09T05:30:58.079Z,85.96
2022-10-09T05:31:58.090Z,85.86
2022-10-09T05:32:58.041Z,85.96
2022-10-09T05:33:58.071Z,85.86
2022-10-09T05:34:58.013Z,85.86
2022-10-09T05:35:58.002Z,85.96
2022-10-09T05:36:57.981Z,85.96
2022-10-09T05:37:57.962Z,85.96
2022-10-09T05:39:01.012Z,85.96
2022-10-09T05:40:00.958Z,86.07
2022-10-09T05:40:57.920Z,86.07
2022-10-09T05:41:57.912Z,86.07
2022-10-09T05:42:57.902Z,86.07
2022-10-09T05:43:57.881Z,86.17
2022-10-09T05:44:57.902Z,86.07
2022-10-09T05:45:57.888Z,85.96
2022-10-09T05:46:57.843Z,86.07
2022-10-09T05:47:57.822Z,86.07
2022-10-09T05:48:57.813Z,86.07
2022-10-09T05:49:57.867Z,85.96
2022-10-09T05:50:57.793Z,85.96
2022-10-09T05:51:57.773Z,85.75
2022-10-09T05:52:57.754Z,85.86
2022-10-09T05:53:57.743Z,85.86
2022-10-09T05:54:57.727Z,85.75
2022-10-09T05:56:01.602Z,85.75
2022-10-09T05:56:58.755Z,85.65
2022-10-09T05:57:57.694Z,85.75
2022-10-09T05:59:00.679Z,85.75
2022-10-09T06:00:00.677Z,85.86
2022-10-09T06:00:57.653Z,85.75
2022-10-09T06:01:57.680Z,85.75
2022-10-09T06:02:57.721Z,85.65
2022-10-09T06:03:57.606Z,85.75
2022-10-09T06:04:57.596Z,85.50
2022-10-09T06:05:57.575Z,85.71
2022-10-09T06:06:57.558Z,85.61
2022-10-09T06:07:57.538Z,85.61
2022-10-09T06:08:57.575Z,85.61
2022-10-09T06:09:57.530Z,85.71
2022-10-09T06:10:57.498Z,85.61
2022-10-09T06:11:57.480Z,85.61
2022-10-09T06:12:57.469Z,85.61
2022-10-09T06:13:57.459Z,85.71
2022-10-09T06:14:57.500Z,85.61
2022-10-09T06:15:57.431Z,85.61
2022-10-09T06:16:57.488Z,85.71
2022-10-09T06:17:57.400Z,85.71
2022-10-09T06:19:00.385Z,85.71
2022-10-09T06:20:00.456Z,85.82
2022-10-09T06:20:57.400Z,85.82
2022-10-09T06:21:57.351Z,85.82
2022-10-09T06:22:57.321Z,85.78
2022-10-09T06:23:57.331Z,85.78
2022-10-09T06:24:57.302Z,85.78
2022-10-09T06:25:57.323Z,85.68
2022-10-09T06:26:57.282Z,85.78
2022-10-09T06:27:57.261Z,85.88
2022-10-09T06:28:57.250Z,85.88
2022-10-09T06:29:57.233Z,85.99
2022-10-09T06:30:57.270Z,85.99
2022-10-09T06:31:57.231Z,85.99
2022-10-09T06:32:57.233Z,85.99
2022-10-09T06:33:57.182Z,85.99
2022-10-09T06:34:57.165Z,86.09
2022-10-09T06:36:05.586Z,86.09
2022-10-09T06:36:58.139Z,86.29
2022-10-09T06:37:57.178Z,86.29
2022-10-09T06:39:00.184Z,86.29
2022-10-09T06:40:00.133Z,86.40
2022-10-09T06:40:57.085Z,86.40
2022-10-09T06:41:57.076Z,86.50
2022-10-09T06:42:57.055Z,86.40
2022-10-09T06:43:57.055Z,86.29
2022-10-09T06:44:57.057Z,86.29
2022-10-09T06:45:57.058Z,86.40
2022-10-09T06:46:56.996Z,86.40
2022-10-09T06:47:56.998Z,86.25
2022-10-09T06:48:56.997Z,86.15
2022-10-09T06:49:56.988Z,86.25
2022-10-09T06:50:56.977Z,86.36
2022-10-09T06:51:56.940Z,86.36
2022-10-09T06:52:56.917Z,86.32
2022-10-09T06:53:56.908Z,86.32
2022-10-09T06:54:56.908Z,86.42
2022-10-09T06:55:56.891Z,86.42
2022-10-09T06:56:56.905Z,86.32
2022-10-09T06:57:56.862Z,86.42
2022-10-09T06:58:59.855Z,86.52
2022-10-09T06:59:59.846Z,86.83
2022-10-09T07:00:56.817Z,86.94
2022-10-09T07:01:57.020Z,86.94
2022-10-09T07:02:56.931Z,86.79
2022-10-09T07:03:56.780Z,86.69
2022-10-09T07:04:56.773Z,86.69
2022-10-09T07:05:56.749Z,86.79
2022-10-09T07:06:56.730Z,86.79
2022-10-09T07:07:56.721Z,86.76
2022-10-09T07:08:56.773Z,86.76
2022-10-09T07:09:56.691Z,86.86
2022-10-09T07:10:56.681Z,86.86
2022-10-09T07:11:56.672Z,86.96
2022-10-09T07:12:56.643Z,87.17
2022-10-09T07:13:56.645Z,87.17
2022-10-09T07:14:56.715Z,87.17
2022-10-09T07:15:58.033Z,87.17
2022-10-09T07:16:56.603Z,87.27
2022-10-09T07:17:56.592Z,87.17
2022-10-09T07:18:59.574Z,87.34
2022-10-09T07:19:59.624Z,87.34
2022-10-09T07:20:56.551Z,87.34
2022-10-09T07:21:56.525Z,87.23
2022-10-09T07:22:56.514Z,87.34
2022-10-09T07:23:56.505Z,87.54
2022-10-09T07:24:56.493Z,87.65
2022-10-09T07:25:56.504Z,87.74
2022-10-09T07:26:56.471Z,88.06
2022-10-09T07:27:56.474Z,87.92
2022-10-09T07:28:56.436Z,88.02
2022-10-09T07:29:56.426Z,87.92
2022-10-09T07:30:56.459Z,87.81
2022-10-09T07:31:56.416Z,87.81
2022-10-09T07:32:56.387Z,87.92
2022-10-09T07:33:56.369Z,88.32
2022-10-09T07:34:56.377Z,88.12
2022-10-09T07:35:56.338Z,88.12
2022-10-09T07:36:56.370Z,88.12
2022-10-09T07:37:56.317Z,88.12
2022-10-09T07:38:59.296Z,87.92
2022-10-09T07:39:59.299Z,87.71
2022-10-09T07:40:56.268Z,87.60
2022-10-09T07:41:56.258Z,87.35
2022-10-09T07:42:56.288Z,87.15
2022-10-09T07:43:56.229Z,87.01
2022-10-09T07:44:56.219Z,86.90
2022-10-09T07:45:56.236Z,86.90
2022-10-09T07:46:56.226Z,86.87
2022-10-09T07:47:56.183Z,86.97
2022-10-09T07:48:56.228Z,87.07
2022-10-09T07:49:56.140Z,87.13
2022-10-09T07:50:56.130Z,87.13
2022-10-09T07:51:56.123Z,87.34
2022-10-09T07:52:56.102Z,87.34
2022-10-09T07:53:56.100Z,87.40
2022-10-09T07:54:56.151Z,87.51
2022-10-09T07:55:56.052Z,87.81
2022-10-09T07:56:56.053Z,88.02
2022-10-09T07:57:56.043Z,88.12
2022-10-09T07:58:59.013Z,88.02
2022-10-09T07:59:59.073Z,87.81
2022-10-09T08:00:55.996Z,87.71
2022-10-09T08:01:56.051Z,87.40
2022-10-09T08:02:56.023Z,87.36
2022-10-09T08:03:55.962Z,87.26
2022-10-09T08:04:55.934Z,87.15
2022-10-09T08:05:55.994Z,87.22
2022-10-09T08:06:55.914Z,87.22
2022-10-09T08:07:55.894Z,87.22
2022-10-09T08:08:55.883Z,87.28
2022-10-09T08:09:55.864Z,87.18
2022-10-09T08:10:55.865Z,88.10
2022-10-09T08:11:55.867Z,87.90
2022-10-09T08:12:55.826Z,88.10
2022-10-09T08:13:55.825Z,87.79
2022-10-09T08:14:55.818Z,87.38
2022-10-09T08:15:55.864Z,87.28
2022-10-09T08:16:55.778Z,86.97
2022-10-09T08:17:55.757Z,86.93
2022-10-09T08:18:58.761Z,86.93
2022-10-09T08:19:58.780Z,86.89
2022-10-09T08:20:55.717Z,87.20
2022-10-09T08:21:57.337Z,87.10
2022-10-09T08:22:55.689Z,87.10
2022-10-09T08:23:55.683Z,86.99
2022-10-09T08:24:55.679Z,86.89
2022-10-09T08:25:55.646Z,86.95
2022-10-09T08:26:55.640Z,86.85
2022-10-09T08:27:55.669Z,87.37
2022-10-09T08:28:55.628Z,87.57
2022-10-09T08:29:55.601Z,87.37
2022-10-09T08:30:55.656Z,86.95
2022-10-09T08:31:55.570Z,86.95
2022-10-09T08:32:55.552Z,86.50
2022-10-09T08:33:55.568Z,86.50
2022-10-09T08:34:55.522Z,86.30
2022-10-09T08:35:55.513Z,86.30
2022-10-09T08:36:55.502Z,86.09
2022-10-09T08:37:55.491Z,86.09
2022-10-09T08:38:58.520Z,85.89
2022-10-09T08:39:58.471Z,85.78
2022-10-09T08:40:58.195Z,85.47
2022-10-09T08:41:55.428Z,85.38
2022-10-09T08:42:55.424Z,85.17
2022-10-09T08:43:55.395Z,85.03
2022-10-09T08:44:55.434Z,84.92
2022-10-09T08:45:55.384Z,84.61
2022-10-09T08:46:55.363Z,84.41
2022-10-09T08:47:55.356Z,84.31
2022-10-09T08:48:55.345Z,84.20
2022-10-09T08:49:55.315Z,84.06
2022-10-09T08:50:55.367Z,83.76
2022-10-09T08:51:55.295Z,83.65
2022-10-09T08:52:55.526Z,83.65
2022-10-09T08:53:55.256Z,83.55
2022-10-09T08:54:55.257Z,83.34
2022-10-09T08:55:55.241Z,83.41
2022-10-09T08:56:55.267Z,83.41
2022-10-09T08:57:55.208Z,83.20
2022-10-09T08:58:58.198Z,83.20
2022-10-09T08:59:58.202Z,83.00
2022-10-09T09:00:55.202Z,83.00
2022-10-09T09:01:55.208Z,82.96
2022-10-09T09:02:55.220Z,82.96
2022-10-09T09:03:55.129Z,82.86
2022-10-09T09:04:55.120Z,83.06
2022-10-09T09:05:55.103Z,83.47
2022-10-09T09:06:55.088Z,83.78
2022-10-09T09:07:55.131Z,83.68
2022-10-09T09:08:55.062Z,83.44
2022-10-09T09:09:55.051Z,83.44
2022-10-09T09:10:55.042Z,83.64
2022-10-09T09:11:55.020Z,83.84
2022-10-09T09:12:55.020Z,83.81
2022-10-09T09:13:55.017Z,83.91
2022-10-09T09:14:54.985Z,84.01
2022-10-09T09:15:55.050Z,84.11
2022-10-09T09:16:54.961Z,84.22
2022-10-09T09:17:54.942Z,84.38
2022-10-09T09:18:57.940Z,84.58
2022-10-09T09:19:57.915Z,84.79
2022-10-09T09:20:54.965Z,84.99
2022-10-09T09:21:54.885Z,85.16
2022-10-09T09:22:54.871Z,85.36
2022-10-09T09:23:54.855Z,85.77
2022-10-09T09:24:54.835Z,86.08
2022-10-09T09:25:54.825Z,86.38
2022-10-09T09:26:54.874Z,86.55
2022-10-09T09:27:54.802Z,86.96
2022-10-09T09:28:54.836Z,87.16
2022-10-09T09:29:54.776Z,87.67
2022-10-09T09:30:54.788Z,87.88
2022-10-09T09:31:54.738Z,87.57
2022-10-09T09:32:54.789Z,87.63
2022-10-09T09:33:54.717Z,88.24
2022-10-09T09:34:54.767Z,88.76
2022-10-09T09:35:54.718Z,89.06
2022-10-09T09:36:54.711Z,89.37
2022-10-09T09:37:54.660Z,89.73
2022-10-09T09:40:07.798Z,89.23
2022-10-09T09:40:55.624Z,89.43
2022-10-09T09:41:54.599Z,89.39
2022-10-09T09:42:54.660Z,90.00
2022-10-09T09:43:54.579Z,90.31
2022-10-09T09:44:54.560Z,90.31
2022-10-09T09:45:54.558Z,90.61
2022-10-09T09:46:54.612Z,90.81
2022-10-09T09:47:54.523Z,90.47
2022-10-09T09:48:54.533Z,90.57
2022-10-09T09:49:54.511Z,91.08
2022-10-09T09:51:10.126Z,91.39
2022-10-09T09:51:55.492Z,91.89
2022-10-09T09:52:54.453Z,91.96
2022-10-09T09:53:54.431Z,91.96
2022-10-09T09:54:54.444Z,92.05
2022-10-09T09:55:54.421Z,92.36
2022-10-09T09:57:12.084Z,92.11
2022-10-09T09:57:55.376Z,92.01
2022-10-09T09:58:57.365Z,92.72
2022-10-09T09:59:57.408Z,93.24
2022-10-09T10:00:54.395Z,93.09
2022-10-09T10:01:54.441Z,93.50
2022-10-09T10:02:54.298Z,93.19
2022-10-09T10:03:54.279Z,93.15
2022-10-09T10:04:54.393Z,93.66
2022-10-09T10:05:54.264Z,94.27
2022-10-09T10:06:54.247Z,94.37
2022-10-09T10:07:54.304Z,94.37
2022-10-09T10:08:54.221Z,94.53
2022-10-09T10:09:54.235Z,95.04
2022-10-09T10:10:54.198Z,94.84
2022-10-09T10:11:54.169Z,94.84
2022-10-09T10:12:54.219Z,95.75
2022-10-09T10:13:54.229Z,95.14
2022-10-09T10:14:54.140Z,95.20
2022-10-09T10:15:54.211Z,95.09
2022-10-09T10:16:54.143Z,95.09
2022-10-09T10:17:54.121Z,95.05
2022-10-09T10:18:57.124Z,95.15
2022-10-09T10:19:57.127Z,94.95
2022-10-09T10:20:54.150Z,94.85
2022-10-09T10:21:54.065Z,94.95
2022-10-09T10:22:54.062Z,95.01
2022-10-09T10:23:54.047Z,95.10
2022-10-09T10:24:54.087Z,94.80
2022-10-09T10:25:53.982Z,94.70
2022-10-09T10:26:53.975Z,94.70
2022-10-09T10:27:53.994Z,94.50
2022-10-09T10:28:53.949Z,94.50
2022-10-09T10:29:53.965Z,94.76
2022-10-09T10:30:53.998Z,94.76
2022-10-09T10:31:53.896Z,94.76
2022-10-09T10:32:53.885Z,94.80
2022-10-09T10:33:53.867Z,94.40
2022-10-09T10:34:53.858Z,94.60
2022-10-09T10:35:53.870Z,94.60
2022-10-09T10:36:53.897Z,94.34
2022-10-09T10:37:53.825Z,94.34
2022-10-09T10:38:56.835Z,94.54
2022-10-09T10:39:56.818Z,94.44
2022-10-09T10:40:53.830Z,94.70
2022-10-09T10:41:53.788Z,94.50
2022-10-09T10:42:59.239Z,94.56
2022-10-09T10:43:54.750Z,94.35
2022-10-09T10:44:53.720Z,93.80
2022-10-09T10:45:53.720Z,93.80
2022-10-09T10:46:53.783Z,93.25
2022-10-09T10:47:53.721Z,92.13
2022-10-09T10:48:53.691Z,92.13
2022-10-09T10:49:53.675Z,91.42
2022-10-09T10:50:53.645Z,90.81
2022-10-09T10:51:53.622Z,90.67
2022-10-09T10:52:53.669Z,89.76
2022-10-09T10:53:53.672Z,89.45
2022-10-09T10:54:53.614Z,89.96
2022-10-09T10:55:53.563Z,89.86
2022-10-09T10:56:53.575Z,89.04
2022-10-09T10:57:53.576Z,87.32
2022-10-09T10:58:56.605Z,87.93
2022-10-09T10:59:56.577Z,87.22
2022-10-09T11:00:53.548Z,88.13
2022-10-09T11:01:53.495Z,87.93
2022-10-09T11:02:53.724Z,88.64
2022-10-09T11:03:53.476Z,87.18
2022-10-09T11:04:53.517Z,87.38
2022-10-09T11:05:53.446Z,86.07
2022-10-09T11:06:53.468Z,86.22
2022-10-09T11:07:56.578Z,85.72
2022-10-09T11:08:54.397Z,85.96
2022-10-09T11:09:53.378Z,86.47
2022-10-09T11:10:53.388Z,85.05
2022-10-09T11:11:53.431Z,85.01
2022-10-09T11:12:53.364Z,85.62
2022-10-09T11:13:53.341Z,85.52
2022-10-09T11:14:53.300Z,83.69
2022-10-09T11:15:53.327Z,85.58
2022-10-09T11:16:53.288Z,84.67
2022-10-09T11:17:53.303Z,85.58
2022-10-09T11:18:56.291Z,84.27
2022-10-09T11:19:56.291Z,84.93
2022-10-09T11:20:53.291Z,83.72
2022-10-09T11:21:53.222Z,83.92
2022-10-09T11:22:53.217Z,83.21
2022-10-09T11:23:53.213Z,80.27
2022-10-09T11:24:53.194Z,81.55
2022-10-09T11:25:53.174Z,81.65
2022-10-09T11:26:53.142Z,81.45
2022-10-09T11:27:53.145Z,80.74
2022-10-09T11:28:53.173Z,78.92
2022-10-09T11:29:53.164Z,78.11
2022-10-09T11:30:53.125Z,78.25
2022-10-09T11:31:53.144Z,78.25
2022-10-09T11:32:53.067Z,78.08
2022-10-09T11:33:53.079Z,78.86
2022-10-09T11:34:53.060Z,77.37
2022-10-09T11:35:53.050Z,77.37
2022-10-09T11:36:53.000Z,79.30
2022-10-09T11:37:53.006Z,78.59
2022-10-09T11:38:56.009Z,82.64
2022-10-09T11:39:56.030Z,82.84
2022-10-09T11:40:52.965Z,81.43
2022-10-09T11:41:52.928Z,81.69
2022-10-09T11:42:52.960Z,79.97
2022-10-09T11:43:52.921Z,77.44
2022-10-09T11:44:52.919Z,79.77
2022-10-09T11:45:52.956Z,78.15
2022-10-09T11:46:52.861Z,78.96
2022-10-09T11:47:52.966Z,77.30
2022-10-09T11:48:52.893Z,75.38
2022-10-09T11:49:52.832Z,77.50
2022-10-09T11:50:52.894Z,77.61
2022-10-09T11:51:52.817Z,78.21
2022-10-09T11:52:52.804Z,77.71
2022-10-09T11:53:52.804Z,77.50
2022-10-09T11:54:52.776Z,77.24
2022-10-09T11:55:52.775Z,77.44
2022-10-09T11:56:52.775Z,78.49
2022-10-09T11:57:53.055Z,79.91
2022-10-09T11:58:55.717Z,81.02
2022-10-09T11:59:55.707Z,82.24
2022-10-09T12:00:52.724Z,80.62
2022-10-09T12:01:52.753Z,79.10
2022-10-09T12:02:52.708Z,79.71
2022-10-09T12:03:52.646Z,79.91
2022-10-09T12:04:55.260Z,79.57
2022-10-09T12:05:52.638Z,77.44
2022-10-09T12:06:52.668Z,76.93
2022-10-09T12:07:52.630Z,78.15
2022-10-09T12:08:52.659Z,80.24
2022-10-09T12:09:52.578Z,80.60
2022-10-09T12:10:52.583Z,75.85
2022-10-09T12:11:52.551Z,73.56
2022-10-09T12:12:52.532Z,73.36
2022-10-09T12:13:52.532Z,73.15
2022-10-09T12:14:52.542Z,73.49
2022-10-09T12:15:52.493Z,74.30
2022-10-09T12:16:52.589Z,75.62
2022-10-09T12:17:52.473Z,76.53
2022-10-09T12:18:55.481Z,77.68
2022-10-09T12:20:00.187Z,78.96
2022-10-09T12:20:53.413Z,76.36
2022-10-09T12:21:52.404Z,77.58
2022-10-09T12:23:13.915Z,78.49
2022-10-09T12:23:53.371Z,76.97
2022-10-09T12:24:52.414Z,77.58
2022-10-09T12:25:52.367Z,77.28
2022-10-09T12:26:52.343Z,76.06
2022-10-09T12:27:52.359Z,76.36
2022-10-09T12:28:52.369Z,75.45
2022-10-09T12:29:52.350Z,75.55
2022-10-09T12:30:52.341Z,77.78
2022-10-09T12:31:52.262Z,77.34
2022-10-09T12:32:52.755Z,75.42
2022-10-09T12:33:52.259Z,76.23
2022-10-09T12:34:52.258Z,74.91
2022-10-09T12:35:52.219Z,73.36
2022-10-09T12:36:52.218Z,75.07
2022-10-09T12:37:52.243Z,76.46
2022-10-09T12:38:55.210Z,74.43
2022-10-09T12:39:55.220Z,73.32
2022-10-09T12:40:52.151Z,70.59
2022-10-09T12:41:52.222Z,70.52
2022-10-09T12:42:52.670Z,72.04
2022-10-09T12:43:52.172Z,73.05
2022-10-09T12:44:52.131Z,74.47
2022-10-09T12:45:52.118Z,74.07
2022-10-09T12:46:52.154Z,72.92
2022-10-09T12:47:52.077Z,74.54
2022-10-09T12:48:52.044Z,75.14
2022-10-09T12:49:52.065Z,73.49
2022-10-09T12:50:52.027Z,71.67
2022-10-09T12:51:55.304Z,72.24
2022-10-09T12:52:52.294Z,71.23